Mount Roskill, New Zealand
Current Conditions -  °F | °C
As of 5:30 AM on Sunday 26 Oct 2014 (Local Time) from NZAA Reporting Station
Few Clouds Few Clouds  
Wind Chill: 52°   Ceiling: Unl
Heat Index: 52°   Visibility: 6mi
Dew Point: 45°   Wind: 10mph
Humidity: 76%   Direction: 250°WSW
Pressure: 30.12"   Gusts: NA
Location:  36.9°S, 174.74°E
Report Text: NZAA 251730Z AUTO 25009KT 9999 FEW033/// 11/07 Q1020 NOSIG
Loading
Personal Weather Stations






























Interactive Weather Map New forecast layout! Learn more

10-Day Weather Forecast

Advertisements
Track Severe Weather on mobile